createdAt,value
2019-01-31T00:05:27.160Z,17.80
2019-01-31T00:11:09.281Z,17.87
2019-01-31T00:16:53.349Z,17.10
2019-01-31T00:22:50.268Z,16.60
2019-01-31T00:28:12.902Z,17.20
2019-01-31T00:33:27.880Z,17.60
2019-01-31T00:38:56.812Z,18.07
2019-01-31T00:44:13.811Z,17.50
2019-01-31T00:49:32.185Z,18.50
2019-01-31T00:55:07.433Z,18.13
2019-01-31T01:00:22.750Z,19.13
2019-01-31T01:06:03.953Z,17.50
2019-01-31T01:11:32.875Z,18.20
2019-01-31T01:16:52.547Z,18.40
2019-01-31T01:22:29.074Z,18.20
2019-01-31T01:28:04.388Z,18.97
2019-01-31T01:33:39.232Z,17.90
2019-01-31T01:39:18.884Z,18.53
2019-01-31T01:44:45.627Z,18.30
2019-01-31T01:50:02.851Z,18.83
2019-01-31T01:55:31.236Z,18.50
2019-01-31T02:01:34.899Z,18.03
2019-01-31T02:06:56.925Z,17.53
2019-01-31T02:12:35.769Z,18.80
2019-01-31T02:17:45.118Z,18.40
2019-01-31T02:23:15.059Z,19.37
2019-01-31T02:28:45.840Z,18.80
2019-01-31T02:34:11.457Z,18.33
2019-01-31T02:39:45.891Z,17.30
2019-01-31T02:45:27.225Z,18.97
2019-01-31T02:50:42.841Z,18.30
2019-01-31T02:56:42.542Z,18.10
2019-01-31T03:02:02.586Z,19.10
2019-01-31T03:07:20.485Z,19.60
2019-01-31T03:12:47.874Z,19.07
2019-01-31T03:18:00.903Z,18.00
2019-01-31T03:23:35.216Z,18.60
2019-01-31T03:29:11.757Z,18.87
2019-01-31T03:34:43.183Z,19.87
2019-01-31T03:40:36.712Z,18.20
2019-01-31T03:46:36.165Z,19.30
2019-01-31T03:52:27.002Z,19.40
2019-01-31T03:58:14.411Z,20.67
2019-01-31T04:03:32.509Z,19.87
2019-01-31T04:08:36.088Z,20.53
2019-01-31T04:13:39.833Z,21.13
2019-01-31T04:18:43.512Z,20.17
2019-01-31T04:23:47.209Z,19.97
2019-01-31T04:28:50.888Z,20.40
2019-01-31T04:33:54.922Z,20.40
2019-01-31T04:38:58.722Z,20.80
2019-01-31T04:44:02.413Z,22.23
2019-01-31T04:49:06.137Z,21.40
2019-01-31T04:54:10.056Z,20.37
2019-01-31T04:59:13.720Z,19.90
2019-01-31T05:04:17.397Z,22.50
2019-01-31T05:09:21.207Z,21.00
2019-01-31T05:14:25.218Z,21.43
2019-01-31T05:19:28.912Z,20.50
2019-01-31T05:24:32.576Z,20.90
2019-01-31T05:29:36.552Z,22.87
2019-01-31T05:34:40.551Z,22.17
2019-01-31T05:39:44.271Z,22.27
2019-01-31T05:44:48.201Z,23.03
2019-01-31T05:49:51.890Z,23.40
2019-01-31T05:54:55.819Z,23.67
2019-01-31T05:59:59.516Z,23.30
2019-01-31T06:05:03.509Z,22.60
2019-01-31T06:10:08.522Z,23.40
2019-01-31T06:15:14.110Z,24.43
2019-01-31T06:20:21.059Z,23.20
2019-01-31T06:25:24.841Z,23.83
2019-01-31T06:30:28.587Z,23.43
2019-01-31T06:35:32.877Z,21.27
2019-01-31T06:40:37.047Z,22.70
2019-01-31T06:45:40.715Z,23.77
2019-01-31T06:50:44.392Z,23.00
2019-01-31T06:55:48.390Z,22.30
2019-01-31T07:00:52.079Z,20.97
2019-01-31T07:05:56.356Z,22.70
2019-01-31T07:11:00.033Z,22.17
2019-01-31T07:16:04.159Z,22.20
2019-01-31T07:21:07.905Z,22.57
2019-01-31T07:26:11.617Z,23.93
2019-01-31T07:31:15.396Z,21.83
2019-01-31T07:36:19.149Z,22.23
2019-01-31T07:41:22.808Z,22.57
2019-01-31T07:46:26.498Z,23.63
2019-01-31T07:51:30.172Z,21.07
2019-01-31T07:56:33.872Z,21.87
2019-01-31T08:01:40.804Z,22.40
2019-01-31T08:06:43.513Z,19.93
2019-01-31T08:11:52.655Z,20.60
2019-01-31T08:16:53.009Z,20.63
2019-01-31T08:21:56.684Z,21.70
2019-01-31T08:27:00.449Z,21.93
2019-01-31T08:32:04.193Z,22.43
2019-01-31T08:37:07.955Z,21.90
2019-01-31T08:42:11.683Z,21.80
2019-01-31T08:47:15.887Z,21.90
2019-01-31T08:52:19.579Z,22.33
2019-01-31T08:57:23.345Z,20.77
2019-01-31T09:02:27.030Z,21.77
2019-01-31T09:07:30.729Z,22.10
2019-01-31T09:12:34.496Z,21.37
2019-01-31T09:17:38.266Z,21.10
2019-01-31T09:22:50.716Z,20.80
2019-01-31T09:28:15.304Z,20.33
2019-01-31T09:33:39.609Z,19.37
2019-01-31T09:39:19.317Z,20.63
2019-01-31T09:45:00.350Z,21.17
2019-01-31T09:50:19.462Z,19.57
2019-01-31T09:56:13.927Z,22.13
2019-01-31T10:01:57.233Z,21.17
2019-01-31T10:08:00.594Z,21.30
2019-01-31T10:13:25.164Z,20.03
2019-01-31T10:18:41.192Z,20.10
2019-01-31T10:24:27.490Z,19.83
2019-01-31T10:30:07.846Z,20.30
2019-01-31T10:35:32.911Z,19.13
2019-01-31T10:41:08.808Z,19.13
2019-01-31T10:46:50.635Z,17.93
2019-01-31T10:52:27.302Z,17.40
2019-01-31T10:58:08.655Z,18.43
2019-01-31T11:03:34.265Z,16.90
2019-01-31T11:09:14.152Z,17.43
2019-01-31T11:14:44.996Z,17.60
2019-01-31T11:19:58.129Z,18.50
2019-01-31T11:25:18.836Z,13.97
2019-01-31T11:30:51.645Z,16.20
2019-01-31T11:36:11.547Z,16.97
2019-01-31T11:41:47.277Z,15.50
2019-01-31T11:47:07.386Z,12.07
2019-01-31T11:52:50.631Z,12.80
2019-01-31T11:58:21.526Z,12.97
2019-01-31T12:03:25.336Z,13.57
2019-01-31T12:08:29.311Z,11.47
2019-01-31T12:13:33.319Z,10.23
2019-01-31T12:18:37.163Z,10.43
2019-01-31T12:23:40.927Z,9.47
2019-01-31T12:28:44.698Z,10.60
2019-01-31T12:33:48.385Z,8.27
2019-01-31T12:38:54.867Z,11.37
2019-01-31T12:43:57.785Z,12.03
2019-01-31T12:49:01.481Z,12.00
2019-01-31T12:54:06.415Z,11.63
2019-01-31T12:59:10.396Z,12.07
2019-01-31T13:04:14.326Z,12.20
2019-01-31T13:09:18.051Z,14.07
2019-01-31T13:14:22.025Z,11.03
2019-01-31T13:19:25.808Z,11.13
2019-01-31T13:24:29.510Z,10.50
2019-01-31T13:29:33.192Z,10.30
2019-01-31T13:34:36.884Z,10.67
2019-01-31T13:39:40.634Z,10.57
2019-01-31T13:44:44.374Z,11.40
2019-01-31T13:49:48.120Z,10.83
2019-01-31T13:54:51.960Z,10.77
2019-01-31T13:59:55.663Z,9.47
2019-01-31T14:04:59.319Z,9.70
2019-01-31T14:10:03.335Z,9.13
2019-01-31T14:15:08.521Z,8.83
2019-01-31T14:20:15.425Z,8.87
2019-01-31T14:25:19.117Z,8.30
2019-01-31T14:30:28.549Z,8.33
2019-01-31T14:35:32.603Z,8.37
2019-01-31T14:40:36.644Z,8.63
2019-01-31T14:45:40.414Z,9.57
2019-01-31T14:50:44.157Z,12.37
2019-01-31T14:55:47.818Z,14.27
2019-01-31T15:00:51.747Z,14.47
2019-01-31T15:05:55.475Z,15.20
2019-01-31T15:10:59.476Z,16.83
2019-01-31T15:16:03.252Z,16.80
2019-01-31T15:21:07.344Z,16.13
2019-01-31T15:26:11.067Z,14.73
2019-01-31T15:31:14.726Z,14.83
2019-01-31T15:36:18.398Z,15.27
2019-01-31T15:41:22.118Z,14.50
2019-01-31T15:46:25.900Z,15.10
2019-01-31T15:51:29.577Z,14.00
2019-01-31T15:56:33.304Z,13.47
2019-01-31T16:01:37.162Z,13.40
2019-01-31T16:06:40.838Z,11.90
2019-01-31T16:11:44.648Z,12.57
2019-01-31T16:16:48.633Z,12.60
2019-01-31T16:21:52.834Z,12.13
2019-01-31T16:26:56.656Z,12.73
2019-01-31T16:32:00.717Z,14.03
2019-01-31T16:37:04.687Z,13.63
2019-01-31T16:42:08.430Z,12.83
2019-01-31T16:47:12.904Z,12.97
2019-01-31T16:52:16.624Z,13.13
2019-01-31T16:57:20.368Z,13.13
2019-01-31T17:02:24.393Z,12.43
2019-01-31T17:07:28.068Z,12.63
2019-01-31T17:12:31.858Z,12.80
2019-01-31T17:17:35.861Z,11.20
2019-01-31T17:22:39.535Z,11.93
2019-01-31T17:27:43.293Z,12.63
2019-01-31T17:32:46.950Z,13.67
2019-01-31T17:37:50.810Z,14.13
2019-01-31T17:42:54.501Z,16.47
2019-01-31T17:47:58.374Z,15.53
2019-01-31T17:53:02.041Z,15.13
2019-01-31T17:58:05.888Z,16.50
2019-01-31T18:03:09.829Z,17.27
2019-01-31T18:08:13.516Z,18.53
2019-01-31T18:13:17.247Z,17.53
2019-01-31T18:18:21.020Z,18.80
2019-01-31T18:23:24.783Z,19.43
2019-01-31T18:28:28.719Z,19.90
2019-01-31T18:33:32.700Z,19.17
2019-01-31T18:38:36.366Z,19.30
2019-01-31T18:43:40.031Z,19.57
2019-01-31T18:48:43.715Z,22.17
2019-01-31T18:53:48.525Z,23.50
2019-01-31T18:58:52.278Z,22.03
2019-01-31T19:03:56.299Z,22.37
2019-01-31T19:09:00.113Z,22.30
2019-01-31T19:14:04.292Z,23.43
2019-01-31T19:19:08.497Z,22.93
2019-01-31T19:24:12.513Z,23.50
2019-01-31T19:29:16.640Z,24.93
2019-01-31T19:34:20.688Z,25.83
2019-01-31T19:39:24.612Z,23.33
2019-01-31T19:44:28.949Z,24.23
2019-01-31T19:49:32.620Z,25.03
2019-01-31T19:54:36.720Z,25.87
2019-01-31T19:59:40.424Z,25.70
2019-01-31T20:04:44.160Z,22.60
2019-01-31T20:09:48.089Z,24.33
2019-01-31T20:14:52.233Z,25.40
2019-01-31T20:19:56.022Z,26.20
2019-01-31T20:24:59.782Z,24.67
2019-01-31T20:30:05.288Z,26.77
2019-01-31T20:35:10.548Z,24.30
2019-01-31T20:40:16.823Z,24.10
2019-01-31T20:45:20.647Z,24.33
2019-01-31T20:50:26.946Z,25.47
2019-01-31T20:55:30.677Z,24.03
2019-01-31T21:00:36.769Z,23.93
2019-01-31T21:05:41.906Z,24.80
2019-01-31T21:10:45.795Z,23.97
2019-01-31T21:15:49.593Z,24.43
2019-01-31T21:20:53.356Z,23.60
2019-01-31T21:25:57.068Z,24.83
2019-01-31T21:31:01.059Z,24.00
2019-01-31T21:36:04.891Z,22.87
2019-01-31T21:41:08.616Z,25.23
2019-01-31T21:46:12.555Z,24.63
2019-01-31T21:51:16.216Z,24.67
2019-01-31T21:56:19.887Z,23.77
2019-01-31T22:01:23.929Z,23.80
2019-01-31T22:06:27.583Z,24.00
2019-01-31T22:11:31.261Z,23.63
2019-01-31T22:16:35.284Z,25.27
2019-01-31T22:21:38.947Z,22.77
2019-01-31T22:26:42.620Z,23.03
2019-01-31T22:31:46.301Z,21.63
2019-01-31T22:36:50.583Z,22.07
2019-01-31T22:41:54.262Z,21.43
2019-01-31T22:46:58.225Z,19.53
2019-01-31T22:52:01.903Z,16.73
2019-01-31T22:57:05.653Z,16.80
2019-01-31T23:02:13.430Z,19.23
2019-01-31T23:07:17.419Z,18.67
2019-01-31T23:12:21.261Z,17.63
2019-01-31T23:17:24.977Z,16.70
2019-01-31T23:22:28.804Z,18.50
2019-01-31T23:27:32.582Z,18.27
2019-01-31T23:32:36.609Z,17.93
2019-01-31T23:37:40.315Z,18.93
2019-01-31T23:42:44.339Z,18.77
2019-01-31T23:47:49.207Z,17.63
2019-01-31T23:52:53.481Z,19.23
2019-01-31T23:57:57.265Z,19.03
